sensor_id;sensor_type;location;lat;lon;timestamp;temperature;humidity
52941;DHT22;62001;53.366;6.636;2023-05-29T00:00:50;9.10;99.90
52941;DHT22;62001;53.366;6.636;2023-05-29T00:03:17;9.10;99.90
52941;DHT22;62001;53.366;6.636;2023-05-29T00:05:44;9.00;99.90
52941;DHT22;62001;53.366;6.636;2023-05-29T00:08:10;8.90;99.90
52941;DHT22;62001;53.366;6.636;2023-05-29T00:10:35;8.80;99.90
52941;DHT22;62001;53.366;6.636;2023-05-29T00:13:03;8.80;99.90
52941;DHT22;62001;53.366;6.636;2023-05-29T00:15:29;8.70;99.90
52941;DHT22;62001;53.366;6.636;2023-05-29T00:17:55;8.70;99.90
52941;DHT22;62001;53.366;6.636;2023-05-29T00:20:21;8.70;99.90
52941;DHT22;62001;53.366;6.636;2023-05-29T00:22:47;8.70;99.90
52941;DHT22;62001;53.366;6.636;2023-05-29T00:25:14;8.70;99.90
52941;DHT22;62001;53.366;6.636;2023-05-29T00:27:41;8.70;99.90
52941;DHT22;62001;53.366;6.636;2023-05-29T00:30:07;8.80;99.90
52941;DHT22;62001;53.366;6.636;2023-05-29T00:32:33;8.70;99.90
52941;DHT22;62001;53.366;6.636;2023-05-29T00:34:59;8.70;99.90
52941;DHT22;62001;53.366;6.636;2023-05-29T00:37:25;8.70;99.90
52941;DHT22;62001;53.366;6.636;2023-05-29T00:39:51;8.60;99.90
52941;DHT22;62001;53.366;6.636;2023-05-29T00:42:17;8.60;99.90
52941;DHT22;62001;53.366;6.636;2023-05-29T00:44:43;8.60;99.90
52941;DHT22;62001;53.366;6.636;2023-05-29T00:47:09;8.60;99.90
52941;DHT22;62001;53.366;6.636;2023-05-29T00:49:36;8.70;99.90
52941;DHT22;62001;53.366;6.636;2023-05-29T00:52:04;8.80;99.90
52941;DHT22;62001;53.366;6.636;2023-05-29T00:54:32;8.90;99.90
52941;DHT22;62001;53.366;6.636;2023-05-29T00:56:59;9.00;99.90
52941;DHT22;62001;53.366;6.636;2023-05-29T00:59:31;9.10;99.90
52941;DHT22;62001;53.366;6.636;2023-05-29T01:01:58;9.20;99.90
52941;DHT22;62001;53.366;6.636;2023-05-29T01:04:26;9.30;99.90
52941;DHT22;62001;53.366;6.636;2023-05-29T01:06:52;9.30;99.90
52941;DHT22;62001;53.366;6.636;2023-05-29T01:09:18;9.30;99.90
52941;DHT22;62001;53.366;6.636;2023-05-29T01:23:36;9.70;99.90
52941;DHT22;62001;53.366;6.636;2023-05-29T01:26:07;9.80;99.90
52941;DHT22;62001;53.366;6.636;2023-05-29T01:28:46;9.90;99.90
52941;DHT22;62001;53.366;6.636;2023-05-29T01:31:13;9.90;99.90
52941;DHT22;62001;53.366;6.636;2023-05-29T01:33:40;9.80;99.90
52941;DHT22;62001;53.366;6.636;2023-05-29T01:36:10;9.70;99.90
52941;DHT22;62001;53.366;6.636;2023-05-29T01:38:36;9.70;99.90
52941;DHT22;62001;53.366;6.636;2023-05-29T01:41:03;9.70;99.90
52941;DHT22;62001;53.366;6.636;2023-05-29T01:43:30;9.60;99.90
52941;DHT22;62001;53.366;6.636;2023-05-29T01:45:57;9.60;99.90
52941;DHT22;62001;53.366;6.636;2023-05-29T01:48:23;9.70;99.90
52941;DHT22;62001;53.366;6.636;2023-05-29T01:50:49;9.70;99.90
52941;DHT22;62001;53.366;6.636;2023-05-29T01:53:15;9.70;99.90
52941;DHT22;62001;53.366;6.636;2023-05-29T01:55:42;9.70;99.90
52941;DHT22;62001;53.366;6.636;2023-05-29T01:58:08;9.70;99.90
52941;DHT22;62001;53.366;6.636;2023-05-29T02:00:34;9.70;99.90
52941;DHT22;62001;53.366;6.636;2023-05-29T02:03:00;9.70;99.90
52941;DHT22;62001;53.366;6.636;2023-05-29T02:05:27;9.70;99.90
52941;DHT22;62001;53.366;6.636;2023-05-29T02:07:53;9.60;99.90
52941;DHT22;62001;53.366;6.636;2023-05-29T02:10:19;9.50;99.90
52941;DHT22;62001;53.366;6.636;2023-05-29T02:12:45;9.30;99.90
52941;DHT22;62001;53.366;6.636;2023-05-29T02:15:11;9.20;99.90
52941;DHT22;62001;53.366;6.636;2023-05-29T02:17:37;9.10;99.90
52941;DHT22;62001;53.366;6.636;2023-05-29T02:20:03;9.10;99.90
52941;DHT22;62001;53.366;6.636;2023-05-29T02:22:30;9.10;99.90
52941;DHT22;62001;53.366;6.636;2023-05-29T02:24:55;9.10;99.90
52941;DHT22;62001;53.366;6.636;2023-05-29T02:27:21;9.20;99.90
52941;DHT22;62001;53.366;6.636;2023-05-29T02:29:47;9.30;99.90
52941;DHT22;62001;53.366;6.636;2023-05-29T02:32:13;9.40;99.90
52941;DHT22;62001;53.366;6.636;2023-05-29T02:34:39;9.40;99.90
52941;DHT22;62001;53.366;6.636;2023-05-29T02:37:05;9.40;99.90
52941;DHT22;62001;53.366;6.636;2023-05-29T02:39:31;9.30;99.90
52941;DHT22;62001;53.366;6.636;2023-05-29T02:41:56;9.40;99.90
52941;DHT22;62001;53.366;6.636;2023-05-29T02:44:22;9.40;99.90
52941;DHT22;62001;53.366;6.636;2023-05-29T02:46:48;9.50;99.90
52941;DHT22;62001;53.366;6.636;2023-05-29T02:49:14;9.40;99.90
52941;DHT22;62001;53.366;6.636;2023-05-29T02:51:40;9.50;99.90
52941;DHT22;62001;53.366;6.636;2023-05-29T02:54:06;9.50;99.90
52941;DHT22;62001;53.366;6.636;2023-05-29T02:56:31;9.50;99.90
52941;DHT22;62001;53.366;6.636;2023-05-29T02:58:57;9.60;99.90
52941;DHT22;62001;53.366;6.636;2023-05-29T03:01:23;9.60;99.90
52941;DHT22;62001;53.366;6.636;2023-05-29T03:03:49;9.60;99.90
52941;DHT22;62001;53.366;6.636;2023-05-29T03:06:14;9.60;99.90
52941;DHT22;62001;53.366;6.636;2023-05-29T03:08:43;9.60;99.90
52941;DHT22;62001;53.366;6.636;2023-05-29T03:11:11;9.60;99.90
52941;DHT22;62001;53.366;6.636;2023-05-29T03:13:38;9.60;99.90
52941;DHT22;62001;53.366;6.636;2023-05-29T03:16:04;9.50;99.90
52941;DHT22;62001;53.366;6.636;2023-05-29T03:18:30;9.50;99.90
52941;DHT22;62001;53.366;6.636;2023-05-29T03:20:56;9.50;99.90
52941;DHT22;62001;53.366;6.636;2023-05-29T03:23:22;9.40;99.90
52941;DHT22;62001;53.366;6.636;2023-05-29T03:25:48;9.40;99.90
52941;DHT22;62001;53.366;6.636;2023-05-29T03:28:14;9.50;99.90
52941;DHT22;62001;53.366;6.636;2023-05-29T03:30:40;9.50;99.90
52941;DHT22;62001;53.366;6.636;2023-05-29T03:33:06;9.40;99.90
52941;DHT22;62001;53.366;6.636;2023-05-29T03:35:32;9.40;99.90
52941;DHT22;62001;53.366;6.636;2023-05-29T03:37:58;9.40;99.90
52941;DHT22;62001;53.366;6.636;2023-05-29T03:40:24;9.40;99.90
52941;DHT22;62001;53.366;6.636;2023-05-29T03:42:50;9.40;99.90
52941;DHT22;62001;53.366;6.636;2023-05-29T03:45:16;9.50;99.90
52941;DHT22;62001;53.366;6.636;2023-05-29T03:47:42;9.50;99.90
52941;DHT22;62001;53.366;6.636;2023-05-29T03:50:08;9.60;99.90
52941;DHT22;62001;53.366;6.636;2023-05-29T03:52:34;9.60;99.90
52941;DHT22;62001;53.366;6.636;2023-05-29T03:55:01;9.60;99.90
52941;DHT22;62001;53.366;6.636;2023-05-29T03:57:27;9.60;99.90
52941;DHT22;62001;53.366;6.636;2023-05-29T03:59:53;9.60;99.90
52941;DHT22;62001;53.366;6.636;2023-05-29T04:02:19;9.50;99.90
52941;DHT22;62001;53.366;6.636;2023-05-29T04:04:45;9.40;99.90
52941;DHT22;62001;53.366;6.636;2023-05-29T04:07:11;9.40;99.90
52941;DHT22;62001;53.366;6.636;2023-05-29T04:09:36;9.40;99.90
52941;DHT22;62001;53.366;6.636;2023-05-29T04:12:03;9.40;99.90
52941;DHT22;62001;53.366;6.636;2023-05-29T04:14:29;9.50;99.90
52941;DHT22;62001;53.366;6.636;2023-05-29T04:16:54;9.50;99.90
52941;DHT22;62001;53.366;6.636;2023-05-29T04:19:20;9.50;99.90
52941;DHT22;62001;53.366;6.636;2023-05-29T04:21:46;9.60;99.90
52941;DHT22;62001;53.366;6.636;2023-05-29T04:24:16;9.70;99.90
52941;DHT22;62001;53.366;6.636;2023-05-29T04:26:42;9.70;99.90
52941;DHT22;62001;53.366;6.636;2023-05-29T04:29:09;9.80;99.90
52941;DHT22;62001;53.366;6.636;2023-05-29T04:31:35;9.70;99.90
52941;DHT22;62001;53.366;6.636;2023-05-29T04:34:03;9.80;99.90
52941;DHT22;62001;53.366;6.636;2023-05-29T04:36:32;9.70;99.90
52941;DHT22;62001;53.366;6.636;2023-05-29T04:38:59;9.80;99.90
52941;DHT22;62001;53.366;6.636;2023-05-29T04:41:25;9.80;99.90
52941;DHT22;62001;53.366;6.636;2023-05-29T04:43:57;9.90;99.90
52941;DHT22;62001;53.366;6.636;2023-05-29T04:46:24;9.90;99.90
52941;DHT22;62001;53.366;6.636;2023-05-29T04:48:51;10.00;99.90
52941;DHT22;62001;53.366;6.636;2023-05-29T04:51:20;10.10;99.90
52941;DHT22;62001;53.366;6.636;2023-05-29T04:53:47;10.20;99.90
52941;DHT22;62001;53.366;6.636;2023-05-29T04:56:16;10.40;99.90
52941;DHT22;62001;53.366;6.636;2023-05-29T04:58:42;10.60;99.90
52941;DHT22;62001;53.366;6.636;2023-05-29T05:01:08;10.70;99.90
52941;DHT22;62001;53.366;6.636;2023-05-29T05:03:35;10.90;99.90
52941;DHT22;62001;53.366;6.636;2023-05-29T05:06:01;10.90;99.90
52941;DHT22;62001;53.366;6.636;2023-05-29T05:08:31;10.90;99.90
52941;DHT22;62001;53.366;6.636;2023-05-29T05:11:00;10.90;99.90
52941;DHT22;62001;53.366;6.636;2023-05-29T05:13:26;11.10;99.90
52941;DHT22;62001;53.366;6.636;2023-05-29T05:15:53;11.40;99.90
52941;DHT22;62001;53.366;6.636;2023-05-29T05:18:19;11.90;99.90
52941;DHT22;62001;53.366;6.636;2023-05-29T05:20:45;12.20;99.90
52941;DHT22;62001;53.366;6.636;2023-05-29T05:23:11;12.20;99.90
52941;DHT22;62001;53.366;6.636;2023-05-29T05:25:37;12.20;99.90
52941;DHT22;62001;53.366;6.636;2023-05-29T05:28:04;12.10;99.90
52941;DHT22;62001;53.366;6.636;2023-05-29T05:30:30;11.90;99.90
52941;DHT22;62001;53.366;6.636;2023-05-29T05:32:57;11.80;99.90
52941;DHT22;62001;53.366;6.636;2023-05-29T05:35:23;12.00;99.90
52941;DHT22;62001;53.366;6.636;2023-05-29T05:37:49;12.30;99.90
52941;DHT22;62001;53.366;6.636;2023-05-29T05:40:15;12.40;99.90
52941;DHT22;62001;53.366;6.636;2023-05-29T05:42:41;12.30;99.90
52941;DHT22;62001;53.366;6.636;2023-05-29T05:45:07;12.30;99.90
52941;DHT22;62001;53.366;6.636;2023-05-29T05:47:33;12.10;99.90
52941;DHT22;62001;53.366;6.636;2023-05-29T05:49:59;12.00;99.90
52941;DHT22;62001;53.366;6.636;2023-05-29T05:52:25;11.90;99.90
52941;DHT22;62001;53.366;6.636;2023-05-29T05:54:55;11.70;99.90
52941;DHT22;62001;53.366;6.636;2023-05-29T05:57:21;11.70;99.90
52941;DHT22;62001;53.366;6.636;2023-05-29T05:59:47;11.80;99.90
52941;DHT22;62001;53.366;6.636;2023-05-29T06:02:13;11.80;99.90
52941;DHT22;62001;53.366;6.636;2023-05-29T06:04:39;11.80;99.90
52941;DHT22;62001;53.366;6.636;2023-05-29T06:07:05;11.90;99.90
52941;DHT22;62001;53.366;6.636;2023-05-29T06:09:32;12.00;99.90
52941;DHT22;62001;53.366;6.636;2023-05-29T06:11:57;12.10;99.90
52941;DHT22;62001;53.366;6.636;2023-05-29T06:14:24;12.10;99.90
52941;DHT22;62001;53.366;6.636;2023-05-29T06:16:51;12.00;99.90
52941;DHT22;62001;53.366;6.636;2023-05-29T06:19:17;12.10;99.90
52941;DHT22;62001;53.366;6.636;2023-05-29T06:21:43;12.30;99.90
52941;DHT22;62001;53.366;6.636;2023-05-29T06:24:09;12.60;99.90
52941;DHT22;62001;53.366;6.636;2023-05-29T06:26:36;12.90;99.90
52941;DHT22;62001;53.366;6.636;2023-05-29T06:29:02;13.10;99.90
52941;DHT22;62001;53.366;6.636;2023-05-29T06:31:28;12.90;99.90
52941;DHT22;62001;53.366;6.636;2023-05-29T06:33:54;12.70;99.90
52941;DHT22;62001;53.366;6.636;2023-05-29T06:36:20;12.50;99.90
52941;DHT22;62001;53.366;6.636;2023-05-29T06:38:49;12.30;99.90
52941;DHT22;62001;53.366;6.636;2023-05-29T06:41:15;12.30;99.90
52941;DHT22;62001;53.366;6.636;2023-05-29T06:43:42;12.40;99.90
52941;DHT22;62001;53.366;6.636;2023-05-29T06:46:08;12.70;99.90
52941;DHT22;62001;53.366;6.636;2023-05-29T06:48:37;12.90;99.90
52941;DHT22;62001;53.366;6.636;2023-05-29T06:51:03;13.00;99.90
52941;DHT22;62001;53.366;6.636;2023-05-29T06:53:37;13.00;99.90
52941;DHT22;62001;53.366;6.636;2023-05-29T06:56:04;13.20;99.90
52941;DHT22;62001;53.366;6.636;2023-05-29T06:58:31;13.40;99.90
52941;DHT22;62001;53.366;6.636;2023-05-29T07:00:58;13.50;99.90
52941;DHT22;62001;53.366;6.636;2023-05-29T07:03:27;13.60;99.90
52941;DHT22;62001;53.366;6.636;2023-05-29T07:05:53;13.50;99.90
52941;DHT22;62001;53.366;6.636;2023-05-29T07:08:19;13.50;99.90
52941;DHT22;62001;53.366;6.636;2023-05-29T07:10:45;13.60;99.90
52941;DHT22;62001;53.366;6.636;2023-05-29T07:13:15;13.70;99.90
52941;DHT22;62001;53.366;6.636;2023-05-29T07:15:42;13.80;99.90
52941;DHT22;62001;53.366;6.636;2023-05-29T07:18:08;13.70;99.90
52941;DHT22;62001;53.366;6.636;2023-05-29T07:20:35;13.60;99.90
52941;DHT22;62001;53.366;6.636;2023-05-29T07:23:01;13.50;99.90
52941;DHT22;62001;53.366;6.636;2023-05-29T07:25:27;13.20;99.90
52941;DHT22;62001;53.366;6.636;2023-05-29T07:27:53;13.20;99.90
52941;DHT22;62001;53.366;6.636;2023-05-29T07:30:20;13.40;99.90
52941;DHT22;62001;53.366;6.636;2023-05-29T07:32:45;13.50;99.90
52941;DHT22;62001;53.366;6.636;2023-05-29T07:35:11;13.60;99.90
52941;DHT22;62001;53.366;6.636;2023-05-29T07:37:37;13.60;99.90
52941;DHT22;62001;53.366;6.636;2023-05-29T07:40:03;13.80;99.90
52941;DHT22;62001;53.366;6.636;2023-05-29T07:42:32;13.90;99.90
52941;DHT22;62001;53.366;6.636;2023-05-29T07:44:58;13.80;99.90
52941;DHT22;62001;53.366;6.636;2023-05-29T07:47:24;13.70;99.90
52941;DHT22;62001;53.366;6.636;2023-05-29T07:49:50;13.50;99.90
52941;DHT22;62001;53.366;6.636;2023-05-29T07:52:18;13.50;99.90
52941;DHT22;62001;53.366;6.636;2023-05-29T07:54:44;13.50;99.90
52941;DHT22;62001;53.366;6.636;2023-05-29T07:57:10;13.40;99.90
52941;DHT22;62001;53.366;6.636;2023-05-29T07:59:37;13.40;99.90
52941;DHT22;62001;53.366;6.636;2023-05-29T08:02:03;13.20;99.90
52941;DHT22;62001;53.366;6.636;2023-05-29T08:04:30;13.20;99.90
52941;DHT22;62001;53.366;6.636;2023-05-29T08:06:56;13.20;99.90
52941;DHT22;62001;53.366;6.636;2023-05-29T08:09:22;13.30;99.90
52941;DHT22;62001;53.366;6.636;2023-05-29T08:11:48;13.40;99.90
52941;DHT22;62001;53.366;6.636;2023-05-29T08:14:14;13.40;99.90
52941;DHT22;62001;53.366;6.636;2023-05-29T08:16:41;13.30;99.90
52941;DHT22;62001;53.366;6.636;2023-05-29T08:19:07;13.30;99.90
52941;DHT22;62001;53.366;6.636;2023-05-29T08:21:33;13.20;99.90
52941;DHT22;62001;53.366;6.636;2023-05-29T08:23:59;13.30;99.90
52941;DHT22;62001;53.366;6.636;2023-05-29T08:26:26;13.30;99.90
52941;DHT22;62001;53.366;6.636;2023-05-29T08:28:52;13.20;99.90
52941;DHT22;62001;53.366;6.636;2023-05-29T08:31:18;13.20;99.90
52941;DHT22;62001;53.366;6.636;2023-05-29T08:33:44;13.20;99.90
52941;DHT22;62001;53.366;6.636;2023-05-29T08:36:10;13.30;99.90
52941;DHT22;62001;53.366;6.636;2023-05-29T08:38:36;13.30;99.90
52941;DHT22;62001;53.366;6.636;2023-05-29T08:41:02;13.30;99.90
52941;DHT22;62001;53.366;6.636;2023-05-29T08:43:31;13.30;99.90
52941;DHT22;62001;53.366;6.636;2023-05-29T08:46:00;13.30;99.90
52941;DHT22;62001;53.366;6.636;2023-05-29T08:48:28;13.40;99.90
52941;DHT22;62001;53.366;6.636;2023-05-29T08:50:56;13.30;99.90
52941;DHT22;62001;53.366;6.636;2023-05-29T08:53:23;13.20;99.90
52941;DHT22;62001;53.366;6.636;2023-05-29T08:55:51;13.30;99.90
52941;DHT22;62001;53.366;6.636;2023-05-29T08:58:21;13.30;99.90
52941;DHT22;62001;53.366;6.636;2023-05-29T09:00:49;13.30;99.90
52941;DHT22;62001;53.366;6.636;2023-05-29T09:03:15;13.30;99.90
52941;DHT22;62001;53.366;6.636;2023-05-29T09:05:41;13.50;99.90
52941;DHT22;62001;53.366;6.636;2023-05-29T09:08:09;13.70;99.90
52941;DHT22;62001;53.366;6.636;2023-05-29T09:10:36;13.90;99.90
52941;DHT22;62001;53.366;6.636;2023-05-29T09:13:02;14.00;99.90
52941;DHT22;62001;53.366;6.636;2023-05-29T09:15:29;14.20;99.90
52941;DHT22;62001;53.366;6.636;2023-05-29T09:17:57;14.20;99.90
52941;DHT22;62001;53.366;6.636;2023-05-29T09:20:24;14.20;99.90
52941;DHT22;62001;53.366;6.636;2023-05-29T09:23:00;14.30;99.90
52941;DHT22;62001;53.366;6.636;2023-05-29T09:25:28;14.30;99.90
52941;DHT22;62001;53.366;6.636;2023-05-29T09:28:05;14.20;99.90
52941;DHT22;62001;53.366;6.636;2023-05-29T09:30:36;14.10;99.90
52941;DHT22;62001;53.366;6.636;2023-05-29T09:33:02;14.00;99.90
52941;DHT22;62001;53.366;6.636;2023-05-29T09:35:45;14.10;99.90
52941;DHT22;62001;53.366;6.636;2023-05-29T09:38:13;14.40;99.90
52941;DHT22;62001;53.366;6.636;2023-05-29T09:40:40;14.60;99.90
52941;DHT22;62001;53.366;6.636;2023-05-29T09:43:16;14.80;99.90
52941;DHT22;62001;53.366;6.636;2023-05-29T09:45:51;14.90;99.90
52941;DHT22;62001;53.366;6.636;2023-05-29T09:48:19;14.90;99.90
52941;DHT22;62001;53.366;6.636;2023-05-29T09:50:47;14.80;99.90
52941;DHT22;62001;53.366;6.636;2023-05-29T09:53:22;14.80;99.90
52941;DHT22;62001;53.366;6.636;2023-05-29T09:55:54;14.80;99.90
52941;DHT22;62001;53.366;6.636;2023-05-29T09:58:23;15.00;99.90
52941;DHT22;62001;53.366;6.636;2023-05-29T10:00:49;15.10;99.90
52941;DHT22;62001;53.366;6.636;2023-05-29T10:03:17;15.20;99.90
52941;DHT22;62001;53.366;6.636;2023-05-29T10:05:47;15.10;99.90
52941;DHT22;62001;53.366;6.636;2023-05-29T10:08:15;15.10;99.90
52941;DHT22;62001;53.366;6.636;2023-05-29T10:11:03;15.00;99.90
52941;DHT22;62001;53.366;6.636;2023-05-29T10:13:38;14.80;99.90
52941;DHT22;62001;53.366;6.636;2023-05-29T10:16:07;14.80;99.90
52941;DHT22;62001;53.366;6.636;2023-05-29T10:18:43;14.70;99.90
52941;DHT22;62001;53.366;6.636;2023-05-29T10:21:12;14.80;99.90
52941;DHT22;62001;53.366;6.636;2023-05-29T10:23:38;14.70;99.90
52941;DHT22;62001;53.366;6.636;2023-05-29T10:26:15;14.60;99.90
52941;DHT22;62001;53.366;6.636;2023-05-29T10:28:50;14.80;99.90
52941;DHT22;62001;53.366;6.636;2023-05-29T10:31:22;14.90;99.90
52941;DHT22;62001;53.366;6.636;2023-05-29T10:36:22;15.10;99.90
52941;DHT22;62001;53.366;6.636;2023-05-29T10:38:52;15.10;99.90
52941;DHT22;62001;53.366;6.636;2023-05-29T10:44:02;14.70;99.90
52941;DHT22;62001;53.366;6.636;2023-05-29T10:49:16;14.60;99.90
52941;DHT22;62001;53.366;6.636;2023-05-29T10:51:43;14.70;99.90
52941;DHT22;62001;53.366;6.636;2023-05-29T10:54:10;14.60;99.90
52941;DHT22;62001;53.366;6.636;2023-05-29T10:56:36;14.60;99.90
52941;DHT22;62001;53.366;6.636;2023-05-29T10:59:02;14.70;99.90
52941;DHT22;62001;53.366;6.636;2023-05-29T11:01:29;14.60;99.90
52941;DHT22;62001;53.366;6.636;2023-05-29T11:06:50;14.60;99.90
52941;DHT22;62001;53.366;6.636;2023-05-29T11:09:35;14.60;99.90
52941;DHT22;62001;53.366;6.636;2023-05-29T11:12:24;14.60;99.90
52941;DHT22;62001;53.366;6.636;2023-05-29T11:15:09;14.60;99.90
52941;DHT22;62001;53.366;6.636;2023-05-29T11:20:06;14.60;99.90
52941;DHT22;62001;53.366;6.636;2023-05-29T11:25:07;14.80;99.90
52941;DHT22;62001;53.366;6.636;2023-05-29T11:27:34;14.70;99.90
52941;DHT22;62001;53.366;6.636;2023-05-29T11:30:01;14.50;99.90
52941;DHT22;62001;53.366;6.636;2023-05-29T11:32:28;14.50;99.90
52941;DHT22;62001;53.366;6.636;2023-05-29T11:34:56;14.40;99.90
52941;DHT22;62001;53.366;6.636;2023-05-29T11:37:25;14.50;99.90
52941;DHT22;62001;53.366;6.636;2023-05-29T11:39:51;14.60;99.90
52941;DHT22;62001;53.366;6.636;2023-05-29T11:42:17;14.70;99.90
52941;DHT22;62001;53.366;6.636;2023-05-29T11:44:43;14.80;99.90
52941;DHT22;62001;53.366;6.636;2023-05-29T11:47:08;14.70;99.90
52941;DHT22;62001;53.366;6.636;2023-05-29T11:49:35;14.60;99.90
52941;DHT22;62001;53.366;6.636;2023-05-29T11:52:09;14.80;99.90
52941;DHT22;62001;53.366;6.636;2023-05-29T11:54:35;14.70;99.90
52941;DHT22;62001;53.366;6.636;2023-05-29T11:57:02;14.80;99.90
52941;DHT22;62001;53.366;6.636;2023-05-29T11:59:29;14.80;99.90
52941;DHT22;62001;53.366;6.636;2023-05-29T12:01:55;14.80;99.90
52941;DHT22;62001;53.366;6.636;2023-05-29T12:04:21;14.60;99.90
52941;DHT22;62001;53.366;6.636;2023-05-29T12:06:47;14.60;99.90
52941;DHT22;62001;53.366;6.636;2023-05-29T12:09:28;14.60;99.90
52941;DHT22;62001;53.366;6.636;2023-05-29T12:12:02;14.50;99.90
52941;DHT22;62001;53.366;6.636;2023-05-29T12:14:28;14.40;99.90
52941;DHT22;62001;53.366;6.636;2023-05-29T12:16:54;14.50;99.90
52941;DHT22;62001;53.366;6.636;2023-05-29T12:19:20;14.60;99.90
52941;DHT22;62001;53.366;6.636;2023-05-29T12:21:46;14.70;99.90
52941;DHT22;62001;53.366;6.636;2023-05-29T12:24:11;14.80;99.90
52941;DHT22;62001;53.366;6.636;2023-05-29T12:26:37;14.90;99.90
52941;DHT22;62001;53.366;6.636;2023-05-29T12:29:04;14.80;99.90
52941;DHT22;62001;53.366;6.636;2023-05-29T12:31:31;14.80;99.90
52941;DHT22;62001;53.366;6.636;2023-05-29T12:34:08;14.80;99.90
52941;DHT22;62001;53.366;6.636;2023-05-29T12:36:34;14.80;99.90
52941;DHT22;62001;53.366;6.636;2023-05-29T12:38:59;14.80;99.90
52941;DHT22;62001;53.366;6.636;2023-05-29T12:43:58;14.90;99.90
52941;DHT22;62001;53.366;6.636;2023-05-29T12:46:27;15.00;99.90
52941;DHT22;62001;53.366;6.636;2023-05-29T12:48:56;15.10;99.90
52941;DHT22;62001;53.366;6.636;2023-05-29T12:51:27;15.10;99.90
52941;DHT22;62001;53.366;6.636;2023-05-29T12:53:54;15.00;99.90
52941;DHT22;62001;53.366;6.636;2023-05-29T12:56:23;14.90;99.90
52941;DHT22;62001;53.366;6.636;2023-05-29T12:58:52;14.90;99.90
52941;DHT22;62001;53.366;6.636;2023-05-29T13:01:18;15.00;99.90
52941;DHT22;62001;53.366;6.636;2023-05-29T13:03:44;14.90;99.90
52941;DHT22;62001;53.366;6.636;2023-05-29T13:06:10;14.90;99.90
52941;DHT22;62001;53.366;6.636;2023-05-29T13:08:36;14.90;99.90
52941;DHT22;62001;53.366;6.636;2023-05-29T13:11:02;14.80;99.90
52941;DHT22;62001;53.366;6.636;2023-05-29T13:13:28;14.70;99.90
52941;DHT22;62001;53.366;6.636;2023-05-29T13:15:54;14.80;99.90
52941;DHT22;62001;53.366;6.636;2023-05-29T13:18:20;14.70;99.90
52941;DHT22;62001;53.366;6.636;2023-05-29T13:20:46;14.80;99.90
52941;DHT22;62001;53.366;6.636;2023-05-29T13:23:12;14.90;99.90
52941;DHT22;62001;53.366;6.636;2023-05-29T13:25:38;14.90;99.90
52941;DHT22;62001;53.366;6.636;2023-05-29T13:28:04;15.00;99.90
52941;DHT22;62001;53.366;6.636;2023-05-29T13:30:30;14.90;99.90
52941;DHT22;62001;53.366;6.636;2023-05-29T13:32:55;14.90;99.90
52941;DHT22;62001;53.366;6.636;2023-05-29T13:35:21;14.80;99.90
52941;DHT22;62001;53.366;6.636;2023-05-29T13:37:47;14.70;99.90
52941;DHT22;62001;53.366;6.636;2023-05-29T13:40:14;14.70;99.90
52941;DHT22;62001;53.366;6.636;2023-05-29T13:42:40;14.60;99.90
52941;DHT22;62001;53.366;6.636;2023-05-29T13:45:07;14.70;99.90
52941;DHT22;62001;53.366;6.636;2023-05-29T13:47:33;14.60;99.90
52941;DHT22;62001;53.366;6.636;2023-05-29T13:50:00;14.60;99.90
52941;DHT22;62001;53.366;6.636;2023-05-29T13:52:26;14.60;99.90
52941;DHT22;62001;53.366;6.636;2023-05-29T13:54:52;14.60;99.90
52941;DHT22;62001;53.366;6.636;2023-05-29T13:57:18;14.60;99.90
52941;DHT22;62001;53.366;6.636;2023-05-29T13:59:44;14.50;99.90
52941;DHT22;62001;53.366;6.636;2023-05-29T14:02:11;14.50;99.90
52941;DHT22;62001;53.366;6.636;2023-05-29T14:04:37;14.60;99.90
52941;DHT22;62001;53.366;6.636;2023-05-29T14:07:04;14.70;99.90
52941;DHT22;62001;53.366;6.636;2023-05-29T14:09:31;14.80;99.90
52941;DHT22;62001;53.366;6.636;2023-05-29T14:11:58;14.70;99.90
52941;DHT22;62001;53.366;6.636;2023-05-29T14:14:25;14.80;99.90
52941;DHT22;62001;53.366;6.636;2023-05-29T14:16:51;14.80;99.90
52941;DHT22;62001;53.366;6.636;2023-05-29T14:19:18;14.70;99.90
52941;DHT22;62001;53.366;6.636;2023-05-29T14:21:45;14.70;99.90
52941;DHT22;62001;53.366;6.636;2023-05-29T14:24:11;14.70;99.90
52941;DHT22;62001;53.366;6.636;2023-05-29T14:26:37;14.70;99.90
52941;DHT22;62001;53.366;6.636;2023-05-29T14:29:03;14.70;99.90
52941;DHT22;62001;53.366;6.636;2023-05-29T14:31:29;14.70;99.90
52941;DHT22;62001;53.366;6.636;2023-05-29T14:33:55;14.70;99.90
52941;DHT22;62001;53.366;6.636;2023-05-29T14:36:21;14.60;99.90
52941;DHT22;62001;53.366;6.636;2023-05-29T14:38:47;14.60;99.90
52941;DHT22;62001;53.366;6.636;2023-05-29T14:41:15;14.60;99.90
52941;DHT22;62001;53.366;6.636;2023-05-29T14:43:42;14.70;99.90
52941;DHT22;62001;53.366;6.636;2023-05-29T14:46:08;14.70;99.90
52941;DHT22;62001;53.366;6.636;2023-05-29T14:48:34;14.70;99.90
52941;DHT22;62001;53.366;6.636;2023-05-29T14:51:00;14.60;99.90
52941;DHT22;62001;53.366;6.636;2023-05-29T14:53:26;14.60;99.90
52941;DHT22;62001;53.366;6.636;2023-05-29T14:55:52;14.60;99.90
52941;DHT22;62001;53.366;6.636;2023-05-29T14:58:19;14.60;99.90
52941;DHT22;62001;53.366;6.636;2023-05-29T15:00:45;14.50;99.90
52941;DHT22;62001;53.366;6.636;2023-05-29T15:03:10;14.50;99.90
52941;DHT22;62001;53.366;6.636;2023-05-29T15:05:36;14.50;99.90
52941;DHT22;62001;53.366;6.636;2023-05-29T15:08:02;14.50;99.90
52941;DHT22;62001;53.366;6.636;2023-05-29T15:10:28;14.60;99.90
52941;DHT22;62001;53.366;6.636;2023-05-29T15:12:54;14.60;99.90
52941;DHT22;62001;53.366;6.636;2023-05-29T15:15:24;14.60;99.90
52941;DHT22;62001;53.366;6.636;2023-05-29T15:17:51;14.60;99.90
52941;DHT22;62001;53.366;6.636;2023-05-29T15:20:22;14.60;99.90
52941;DHT22;62001;53.366;6.636;2023-05-29T15:22:49;14.40;99.90
52941;DHT22;62001;53.366;6.636;2023-05-29T15:25:16;14.30;99.90
52941;DHT22;62001;53.366;6.636;2023-05-29T15:27:42;14.20;99.90
52941;DHT22;62001;53.366;6.636;2023-05-29T15:30:15;14.20;99.90
52941;DHT22;62001;53.366;6.636;2023-05-29T15:32:43;14.20;99.90
52941;DHT22;62001;53.366;6.636;2023-05-29T15:35:14;14.20;99.90
52941;DHT22;62001;53.366;6.636;2023-05-29T15:37:41;14.20;99.90
52941;DHT22;62001;53.366;6.636;2023-05-29T15:40:08;14.20;99.90
52941;DHT22;62001;53.366;6.636;2023-05-29T15:42:37;14.10;99.90
52941;DHT22;62001;53.366;6.636;2023-05-29T15:45:04;13.90;99.90
52941;DHT22;62001;53.366;6.636;2023-05-29T15:47:30;13.80;99.90
52941;DHT22;62001;53.366;6.636;2023-05-29T15:49:57;13.90;99.90
52941;DHT22;62001;53.366;6.636;2023-05-29T15:52:25;13.90;99.90
52941;DHT22;62001;53.366;6.636;2023-05-29T15:54:51;13.80;99.90
52941;DHT22;62001;53.366;6.636;2023-05-29T15:57:17;13.80;99.90
52941;DHT22;62001;53.366;6.636;2023-05-29T15:59:43;13.70;99.90
52941;DHT22;62001;53.366;6.636;2023-05-29T16:02:09;13.70;99.90
52941;DHT22;62001;53.366;6.636;2023-05-29T16:04:35;13.70;99.90